Terminal Aerodrome Forecast
Issued by NWS

Home | Current Version | Previous Version | Text Only | Print | Product List | Glossary Off
Versions: 1 2 3 4 5 6 7 8 9 10 11 12

000
FTUS42 KMHX 281722
TAFOAJ
TAF
KOAJ 281722Z 2818/2918 03009KT P6SM SCT040
     FM282300 02003KT P6SM SCT250
     FM291300 03009KT P6SM FEW040
      AMD LTD TO CLD VIS AND WIND=

USA.gov is the U.S. government's official web portal to all federal, state and local government web resources and services.